createdAt,value
2022-11-23T00:01:37.128Z,97125.00
2022-11-23T00:04:10.558Z,97124.00
2022-11-23T00:06:38.674Z,97126.00
2022-11-23T00:09:07.726Z,97125.00
2022-11-23T00:11:36.559Z,97125.00
2022-11-23T00:14:04.785Z,97126.00
2022-11-23T00:16:32.452Z,97129.00
2022-11-23T00:19:02.078Z,97129.00
2022-11-23T00:21:32.674Z,97136.00
2022-11-23T00:24:00.671Z,97130.00
2022-11-23T00:26:28.331Z,97137.00
2022-11-23T00:28:55.863Z,97131.00
2022-11-23T00:31:24.831Z,97122.00
2022-11-23T00:33:55.649Z,97117.00
2022-11-23T00:36:27.038Z,97124.00
2022-11-23T00:38:55.266Z,97135.00
2022-11-23T00:41:27.474Z,97126.00
2022-11-23T00:43:55.041Z,97120.00
2022-11-23T00:46:27.110Z,97118.00
2022-11-23T00:48:57.653Z,97126.00
2022-11-23T00:51:33.379Z,97120.00
2022-11-23T00:54:04.037Z,97119.00
2022-11-23T00:56:34.461Z,97121.00
2022-11-23T00:59:04.292Z,97124.00
2022-11-23T01:01:37.160Z,97114.00
2022-11-23T01:04:07.987Z,97116.00
2022-11-23T01:06:40.234Z,97118.00
2022-11-23T01:09:18.392Z,97128.00
2022-11-23T01:11:46.182Z,97115.00
2022-11-23T01:14:13.823Z,97117.00
2022-11-23T01:16:42.313Z,97115.00
2022-11-23T01:19:17.449Z,97124.00
2022-11-23T01:21:45.212Z,97116.00
2022-11-23T01:24:22.123Z,97113.00
2022-11-23T01:26:55.112Z,97120.00
2022-11-23T01:29:24.658Z,97125.00
2022-11-23T01:31:52.114Z,97115.00
2022-11-23T01:34:19.497Z,97124.00
2022-11-23T01:36:46.951Z,97115.00
2022-11-23T01:39:15.650Z,97122.00
2022-11-23T01:41:45.726Z,97119.00
2022-11-23T01:44:36.877Z,97127.00
2022-11-23T01:47:09.254Z,97129.00
2022-11-23T01:49:47.870Z,97130.00
2022-11-23T01:52:26.292Z,97116.00
2022-11-23T01:55:01.535Z,97124.00
2022-11-23T01:57:43.715Z,97123.00
2022-11-23T02:00:13.530Z,97128.00
2022-11-23T02:03:00.000Z,97124.00
2022-11-23T02:05:46.891Z,97127.00
2022-11-23T02:08:17.548Z,97132.00
2022-11-23T02:10:44.838Z,97132.00
2022-11-23T02:13:14.402Z,97128.00
2022-11-23T02:15:42.075Z,97123.00
2022-11-23T02:18:22.703Z,97122.00
2022-11-23T02:20:51.259Z,97132.00
2022-11-23T02:23:57.271Z,97124.00
2022-11-23T02:26:34.241Z,97119.00
2022-11-23T02:29:25.563Z,97121.00
2022-11-23T02:31:54.660Z,97123.00
2022-11-23T02:34:22.000Z,97123.00
2022-11-23T02:36:55.107Z,97106.00
2022-11-23T02:39:42.520Z,97114.00
2022-11-23T02:42:09.916Z,97114.00
2022-11-23T02:45:14.935Z,97106.00
2022-11-23T02:47:42.386Z,97103.00
2022-11-23T02:50:09.709Z,97101.00
2022-11-23T02:52:37.056Z,97110.00
2022-11-23T02:55:04.559Z,97101.00
2022-11-23T02:57:31.915Z,97093.00
2022-11-23T02:59:59.206Z,97095.00
2022-11-23T03:02:26.527Z,97095.00
2022-11-23T03:04:53.989Z,97096.00
2022-11-23T03:07:21.349Z,97091.00
2022-11-23T03:09:48.736Z,97093.00
2022-11-23T03:12:16.723Z,97091.00
2022-11-23T03:14:44.487Z,97090.00
2022-11-23T03:17:11.884Z,97086.00
2022-11-23T03:19:39.272Z,97088.00
2022-11-23T03:22:07.072Z,97091.00
2022-11-23T03:24:34.391Z,97086.00
2022-11-23T03:27:02.256Z,97079.00
2022-11-23T03:29:30.312Z,97080.00
2022-11-23T03:31:58.327Z,97085.00
2022-11-23T03:34:25.687Z,97085.00
2022-11-23T03:36:53.008Z,97081.00
2022-11-23T03:39:20.365Z,97074.00
2022-11-23T03:41:47.698Z,97081.00
2022-11-23T03:44:15.274Z,97069.00
2022-11-23T03:46:42.611Z,97070.00
2022-11-23T03:49:09.979Z,97066.00
2022-11-23T03:51:37.336Z,97065.00
2022-11-23T03:54:04.979Z,97053.00
2022-11-23T03:56:32.346Z,97054.00
2022-11-23T03:58:59.710Z,97054.00
2022-11-23T04:01:27.199Z,97044.00
2022-11-23T04:03:54.523Z,97050.00
2022-11-23T04:06:21.927Z,97051.00
2022-11-23T04:08:49.255Z,97048.00
2022-11-23T04:11:16.628Z,97040.00
2022-11-23T04:13:43.967Z,97028.00
2022-11-23T04:16:11.381Z,97037.00
2022-11-23T04:18:38.717Z,97032.00
2022-11-23T04:21:06.280Z,97033.00
2022-11-23T04:23:33.606Z,97042.00
2022-11-23T04:26:00.931Z,97037.00
2022-11-23T04:28:28.475Z,97037.00
2022-11-23T04:30:56.052Z,97029.00
2022-11-23T04:33:23.399Z,97022.00
2022-11-23T04:35:50.748Z,97026.00
2022-11-23T04:38:18.340Z,97028.00
2022-11-23T04:40:49.138Z,97020.00
2022-11-23T04:43:16.499Z,97022.00
2022-11-23T04:45:44.714Z,97018.00
2022-11-23T04:48:12.091Z,97020.00
2022-11-23T04:50:40.795Z,97017.00
2022-11-23T07:57:18.446Z,97028.00
2022-11-23T07:59:46.095Z,97029.00
2022-11-23T08:02:15.963Z,97032.00
2022-11-23T08:04:43.355Z,97034.00
2022-11-23T08:07:10.907Z,97030.00
2022-11-23T08:09:38.295Z,97035.00
2022-11-23T08:12:07.811Z,97047.00
2022-11-23T08:14:35.522Z,97039.00
2022-11-23T08:17:03.132Z,97037.00
2022-11-23T08:19:30.484Z,97042.00
2022-11-23T08:21:57.782Z,97032.00
2022-11-23T08:24:25.105Z,97034.00
2022-11-23T08:26:52.464Z,97041.00
2022-11-23T08:29:20.583Z,97038.00
2022-11-23T08:31:48.076Z,97037.00
2022-11-23T08:34:15.423Z,97033.00
2022-11-23T08:36:42.789Z,97028.00
2022-11-23T08:39:11.182Z,97015.00
2022-11-23T08:41:39.130Z,97027.00
2022-11-23T08:44:09.779Z,97020.00
2022-11-23T08:46:37.490Z,97036.00
2022-11-23T08:49:06.209Z,97042.00
2022-11-23T08:51:34.247Z,97034.00
2022-11-23T08:54:01.789Z,97038.00
2022-11-23T08:56:29.199Z,97036.00
2022-11-23T08:58:56.554Z,97043.00
2022-11-23T09:01:24.529Z,97036.00
2022-11-23T09:03:51.951Z,97043.00
2022-11-23T09:06:20.370Z,97043.00
2022-11-23T09:08:47.728Z,97049.00
2022-11-23T09:11:18.408Z,97044.00
2022-11-23T09:13:45.648Z,97051.00
2022-11-23T09:16:13.083Z,97042.00
2022-11-23T09:18:40.399Z,97047.00
2022-11-23T09:21:07.795Z,97049.00
2022-11-23T09:23:35.335Z,97042.00
2022-11-23T09:26:04.990Z,97043.00
2022-11-23T09:28:33.535Z,97050.00
2022-11-23T09:31:04.748Z,97042.00
2022-11-23T09:33:32.155Z,97039.00
2022-11-23T09:36:04.763Z,97048.00
2022-11-23T09:38:58.620Z,97039.00
2022-11-23T09:42:09.412Z,97041.00
2022-11-23T09:44:45.467Z,97052.00
2022-11-23T09:47:45.131Z,97045.00
2022-11-23T09:50:55.382Z,97039.00
2022-11-23T09:54:32.504Z,97037.00
2022-11-23T09:57:02.053Z,97034.00
2022-11-23T09:59:47.425Z,97032.00
2022-11-23T10:02:25.763Z,97035.00
2022-11-23T10:04:55.040Z,97033.00
2022-11-23T10:07:25.225Z,97036.00
2022-11-23T10:10:26.453Z,97027.00
2022-11-23T10:13:42.940Z,97023.00
2022-11-23T10:16:53.964Z,97031.00
2022-11-23T10:20:36.647Z,97018.00
2022-11-23T10:23:27.322Z,97020.00
2022-11-23T10:25:54.856Z,97020.00
2022-11-23T10:28:24.106Z,97022.00
2022-11-23T10:31:23.198Z,97019.00
2022-11-23T10:34:17.490Z,97014.00
2022-11-23T10:36:44.904Z,97012.00
2022-11-23T10:39:26.141Z,97007.00
2022-11-23T10:42:00.843Z,97005.00
2022-11-23T10:44:42.958Z,97008.00
2022-11-23T10:47:10.296Z,97010.00
2022-11-23T10:49:37.704Z,97004.00
2022-11-23T10:52:33.466Z,96997.00
2022-11-23T10:55:06.466Z,96997.00
2022-11-23T10:57:45.611Z,96996.00
2022-11-23T11:00:13.164Z,97001.00
2022-11-23T11:02:54.490Z,96982.00
2022-11-23T11:09:00.454Z,96981.00
2022-11-23T11:11:39.698Z,96981.00
2022-11-23T11:14:23.583Z,96982.00
2022-11-23T11:17:00.365Z,96987.00
2022-11-23T11:19:36.158Z,96984.00
2022-11-23T11:22:37.433Z,96984.00
2022-11-23T11:25:07.265Z,96971.00
2022-11-23T11:27:35.276Z,96962.00
2022-11-23T11:30:32.699Z,96967.00
2022-11-23T11:33:37.256Z,96954.00
2022-11-23T11:36:06.332Z,96971.00
2022-11-23T11:38:37.764Z,96957.00
2022-11-23T11:41:11.929Z,96959.00
2022-11-23T11:43:53.282Z,96953.00
2022-11-23T11:46:40.388Z,96943.00
2022-11-23T11:49:44.373Z,96942.00
2022-11-23T11:52:40.969Z,96948.00
2022-11-23T11:55:45.272Z,96960.00
2022-11-23T11:58:17.261Z,96941.00
2022-11-23T12:00:48.695Z,96948.00
2022-11-23T12:03:45.629Z,96930.00
2022-11-23T12:06:35.424Z,96949.00
2022-11-23T12:09:19.117Z,96932.00
2022-11-23T12:11:46.584Z,96930.00
2022-11-23T12:14:16.397Z,96927.00
2022-11-23T12:17:32.915Z,96926.00
2022-11-23T12:21:18.224Z,96926.00
2022-11-23T12:24:19.939Z,96933.00
2022-11-23T12:27:26.687Z,96945.00
2022-11-23T12:30:51.751Z,96931.00
2022-11-23T12:34:22.755Z,96926.00
2022-11-23T12:37:03.863Z,96925.00
2022-11-23T12:40:14.104Z,96919.00
2022-11-23T12:43:45.707Z,96915.00
2022-11-23T12:46:50.792Z,96911.00
2022-11-23T12:49:55.185Z,96907.00
2022-11-23T12:53:23.753Z,96903.00
2022-11-23T12:56:18.211Z,96903.00
2022-11-23T12:58:48.199Z,96891.00
2022-11-23T13:01:42.530Z,96896.00
2022-11-23T13:05:20.441Z,96901.00
2022-11-23T13:08:18.991Z,96888.00
2022-11-23T13:11:31.563Z,96895.00
2022-11-23T13:14:32.867Z,96885.00
2022-11-23T13:17:28.980Z,96880.00
2022-11-23T13:20:44.413Z,96878.00
2022-11-23T13:23:12.080Z,96887.00
2022-11-23T13:25:39.682Z,96886.00
2022-11-23T13:28:31.194Z,96880.00
2022-11-23T13:31:16.954Z,96881.00
2022-11-23T13:33:52.616Z,96878.00
2022-11-23T13:37:11.254Z,96875.00
2022-11-23T13:40:00.320Z,96877.00
2022-11-23T13:42:32.192Z,96868.00
2022-11-23T13:45:21.531Z,96865.00
2022-11-23T13:48:48.988Z,96867.00
2022-11-23T13:51:06.387Z,96849.00
2022-11-23T13:53:42.013Z,96858.00
2022-11-23T13:56:45.183Z,96844.00
2022-11-23T13:59:24.392Z,96844.00
2022-11-23T14:02:07.431Z,96836.00
2022-11-23T14:04:41.343Z,96835.00
2022-11-23T14:07:43.336Z,96842.00
2022-11-23T14:10:24.790Z,96838.00
2022-11-23T14:13:18.024Z,96834.00
2022-11-23T14:15:59.734Z,96831.00
2022-11-23T14:19:00.764Z,96837.00
2022-11-23T14:22:18.948Z,96838.00
2022-11-23T14:25:59.133Z,96814.00
2022-11-23T14:29:25.396Z,96829.00
2022-11-23T14:33:00.490Z,96827.00
2022-11-23T14:36:27.098Z,96845.00
2022-11-23T14:40:06.522Z,96846.00
2022-11-23T14:42:42.900Z,96832.00
2022-11-23T14:45:15.966Z,96852.00
2022-11-23T14:47:43.365Z,96851.00
2022-11-23T14:50:29.882Z,96847.00
2022-11-23T14:53:10.417Z,96851.00
2022-11-23T14:55:37.795Z,96866.00
2022-11-23T14:58:06.249Z,96866.00
2022-11-23T15:00:44.035Z,96872.00
2022-11-23T15:03:49.447Z,96861.00
2022-11-23T15:06:18.308Z,96875.00
2022-11-23T15:09:34.805Z,96875.00
2022-11-23T15:12:41.306Z,96883.00
2022-11-23T15:15:30.376Z,96882.00
2022-11-23T15:18:02.644Z,96884.00
2022-11-23T15:20:43.535Z,96883.00
2022-11-23T15:23:31.147Z,96889.00
2022-11-23T15:26:01.558Z,96885.00
2022-11-23T15:28:31.856Z,96885.00
2022-11-23T15:30:59.272Z,96891.00
2022-11-23T15:33:27.613Z,96906.00
2022-11-23T15:35:55.750Z,96906.00
2022-11-23T15:38:24.230Z,96900.00
2022-11-23T15:40:52.408Z,96908.00
2022-11-23T15:43:20.704Z,96910.00
2022-11-23T15:45:47.884Z,96913.00
2022-11-23T15:48:30.867Z,96946.00
2022-11-23T15:51:08.503Z,96969.00
2022-11-23T15:53:53.372Z,96986.00
2022-11-23T15:56:35.994Z,97021.00
2022-11-23T15:59:44.031Z,97048.00
2022-11-23T16:02:28.813Z,97083.00
2022-11-23T16:05:26.677Z,97077.00
2022-11-23T16:08:02.296Z,97088.00
2022-11-23T16:10:37.564Z,97105.00
2022-11-23T16:13:38.014Z,97124.00
2022-11-23T16:16:22.393Z,97115.00
2022-11-23T16:18:57.920Z,97102.00
2022-11-23T16:21:25.547Z,97102.00
2022-11-23T16:23:57.993Z,97105.00
2022-11-23T16:26:34.186Z,97110.00
2022-11-23T16:29:02.392Z,97116.00
2022-11-23T16:31:42.194Z,97123.00
2022-11-23T16:34:20.072Z,97115.00
2022-11-23T16:36:48.084Z,97128.00
2022-11-23T16:39:15.403Z,97132.00
2022-11-23T16:41:42.798Z,97129.00
2022-11-23T16:44:10.096Z,97141.00
2022-11-23T16:46:43.056Z,97144.00
2022-11-23T16:49:19.462Z,97140.00
2022-11-23T16:51:56.477Z,97143.00
2022-11-23T16:54:25.601Z,97153.00
2022-11-23T16:56:53.785Z,97151.00
2022-11-23T16:59:22.803Z,97153.00
2022-11-23T17:01:56.726Z,97158.00
2022-11-23T17:04:25.746Z,97174.00
2022-11-23T17:06:53.202Z,97191.00
2022-11-23T17:09:20.828Z,97196.00
2022-11-23T17:11:50.921Z,97195.00
2022-11-23T17:14:20.108Z,97203.00
2022-11-23T17:16:48.761Z,97212.00
2022-11-23T17:19:20.899Z,97221.00
2022-11-23T17:21:48.666Z,97232.00
2022-11-23T17:24:16.060Z,97244.00
2022-11-23T17:26:52.712Z,97255.00
2022-11-23T17:29:21.695Z,97273.00
2022-11-23T17:31:51.285Z,97288.00
2022-11-23T17:34:18.707Z,97299.00
2022-11-23T17:36:49.341Z,97305.00
2022-11-23T17:39:24.485Z,97311.00
2022-11-23T17:41:51.986Z,97336.00
2022-11-23T17:44:19.344Z,97340.00
2022-11-23T17:46:47.843Z,97346.00
2022-11-23T17:49:27.516Z,97354.00
2022-11-23T17:51:57.879Z,97362.00
2022-11-23T17:54:25.305Z,97361.00
2022-11-23T17:56:52.685Z,97366.00
2022-11-23T17:59:20.243Z,97377.00
2022-11-23T18:01:48.136Z,97396.00
2022-11-23T18:04:15.533Z,97390.00
2022-11-23T18:06:42.948Z,97405.00
2022-11-23T18:09:11.941Z,97418.00
2022-11-23T18:11:39.544Z,97411.00
2022-11-23T18:14:07.254Z,97431.00
2022-11-23T18:16:34.561Z,97439.00
2022-11-23T18:19:01.871Z,97454.00
2022-11-23T18:21:29.216Z,97446.00
2022-11-23T18:24:01.472Z,97439.00
2022-11-23T18:26:32.060Z,97446.00
2022-11-23T18:28:59.411Z,97443.00
2022-11-23T18:31:27.125Z,97446.00
2022-11-23T18:33:54.724Z,97462.00
2022-11-23T18:36:22.312Z,97452.00
2022-11-23T18:38:49.667Z,97457.00
2022-11-23T18:41:17.477Z,97467.00
2022-11-23T18:43:46.082Z,97468.00
2022-11-23T18:46:19.123Z,97478.00
2022-11-23T18:48:49.437Z,97490.00
2022-11-23T18:51:18.507Z,97492.00
2022-11-23T18:53:47.806Z,97509.00
2022-11-23T18:56:15.463Z,97513.00
2022-11-23T18:58:45.638Z,97504.00
2022-11-23T19:01:21.590Z,97512.00
2022-11-23T19:03:53.221Z,97522.00
2022-11-23T19:06:23.737Z,97520.00
2022-11-23T19:08:54.644Z,97517.00
2022-11-23T19:11:28.599Z,97533.00
2022-11-23T19:14:01.598Z,97539.00
2022-11-23T19:16:32.054Z,97558.00
2022-11-23T19:19:08.104Z,97566.00
2022-11-23T19:21:36.647Z,97572.00
2022-11-23T19:24:06.392Z,97572.00
2022-11-23T19:26:33.837Z,97587.00
2022-11-23T19:29:01.280Z,97596.00
2022-11-23T19:31:31.877Z,97598.00
2022-11-23T19:34:03.801Z,97609.00
2022-11-23T19:36:36.360Z,97633.00
2022-11-23T19:39:05.574Z,97621.00
2022-11-23T19:41:33.303Z,97620.00
2022-11-23T19:44:02.017Z,97633.00
2022-11-23T19:46:31.353Z,97642.00
2022-11-23T19:48:59.663Z,97661.00
2022-11-23T19:51:28.525Z,97680.00
2022-11-23T19:54:01.033Z,97693.00
2022-11-23T19:56:29.818Z,97683.00
2022-11-23T19:59:01.562Z,97673.00
2022-11-23T20:01:32.568Z,97675.00
2022-11-23T20:04:08.617Z,97678.00
2022-11-23T20:06:42.282Z,97673.00
2022-11-23T20:09:19.171Z,97692.00
2022-11-23T20:11:50.667Z,97687.00
2022-11-23T20:14:19.776Z,97705.00
2022-11-23T20:16:47.929Z,97701.00
2022-11-23T20:19:15.488Z,97721.00
2022-11-23T20:21:42.835Z,97721.00
2022-11-23T20:24:14.523Z,97718.00
2022-11-23T20:26:42.972Z,97713.00
2022-11-23T20:29:11.448Z,97722.00
2022-11-23T20:31:39.247Z,97734.00
2022-11-23T20:34:09.453Z,97734.00
2022-11-23T20:36:38.739Z,97733.00
2022-11-23T20:39:10.971Z,97740.00
2022-11-23T20:41:39.003Z,97738.00
2022-11-23T20:44:13.868Z,97743.00
2022-11-23T20:49:30.309Z,97765.00
2022-11-23T20:51:59.089Z,97748.00
2022-11-23T20:54:26.442Z,97752.00
2022-11-23T20:56:53.839Z,97760.00
2022-11-23T20:59:23.800Z,97772.00
2022-11-23T21:01:51.955Z,97773.00
2022-11-23T21:04:19.381Z,97774.00
2022-11-23T21:06:46.803Z,97775.00
2022-11-23T21:09:14.183Z,97781.00
2022-11-23T21:11:59.933Z,97777.00
2022-11-23T21:14:28.119Z,97782.00
2022-11-23T21:16:59.265Z,97783.00
2022-11-23T21:19:39.234Z,97785.00
2022-11-23T21:22:12.238Z,97789.00
2022-11-23T21:24:40.753Z,97787.00
2022-11-23T21:27:13.315Z,97788.00
2022-11-23T21:29:41.122Z,97793.00
2022-11-23T21:32:14.683Z,97798.00
2022-11-23T21:34:42.083Z,97795.00
2022-11-23T21:37:12.520Z,97800.00
2022-11-23T21:39:42.397Z,97804.00
2022-11-23T21:42:10.495Z,97799.00
2022-11-23T21:44:37.845Z,97805.00
2022-11-23T21:47:05.284Z,97811.00
2022-11-23T21:49:32.695Z,97805.00
2022-11-23T21:52:00.191Z,97808.00
2022-11-23T21:54:28.027Z,97808.00
2022-11-23T21:56:55.370Z,97812.00
2022-11-23T21:59:23.327Z,97816.00
2022-11-23T22:01:50.688Z,97807.00
2022-11-23T22:04:20.065Z,97815.00
2022-11-23T22:06:47.969Z,97788.00
2022-11-23T22:09:15.980Z,97810.00
2022-11-23T22:11:44.971Z,97811.00
2022-11-23T22:14:16.372Z,97811.00
2022-11-23T22:16:49.808Z,97806.00
2022-11-23T22:19:18.299Z,97816.00
2022-11-23T22:21:46.797Z,97814.00
2022-11-23T22:24:18.666Z,97816.00
2022-11-23T22:26:47.811Z,97811.00
2022-11-23T22:29:15.970Z,97822.00
2022-11-23T22:31:43.914Z,97827.00
2022-11-23T22:34:14.116Z,97816.00
2022-11-23T22:36:42.472Z,97822.00
2022-11-23T22:39:10.418Z,97832.00
2022-11-23T22:41:38.675Z,97837.00
2022-11-23T22:44:20.181Z,97825.00
2022-11-23T22:46:51.137Z,97823.00
2022-11-23T22:49:18.958Z,97824.00
2022-11-23T22:51:47.186Z,97824.00
2022-11-23T22:54:14.480Z,97836.00
2022-11-23T22:56:41.797Z,97826.00
2022-11-23T22:59:09.280Z,97833.00
2022-11-23T23:01:36.670Z,97842.00
2022-11-23T23:04:04.220Z,97847.00
2022-11-23T23:06:36.204Z,97856.00
2022-11-23T23:09:07.264Z,97869.00
2022-11-23T23:11:36.905Z,97873.00
2022-11-23T23:14:05.007Z,97875.00
2022-11-23T23:16:32.520Z,97864.00
2022-11-23T23:19:00.616Z,97881.00
2022-11-23T23:21:29.890Z,97865.00
2022-11-23T23:24:01.112Z,97884.00
2022-11-23T23:26:29.554Z,97889.00
2022-11-23T23:29:00.720Z,97902.00
2022-11-23T23:31:29.981Z,97893.00
2022-11-23T23:33:59.288Z,97902.00
2022-11-23T23:36:26.825Z,97895.00
2022-11-23T23:38:54.337Z,97895.00
2022-11-23T23:41:21.913Z,97895.00
2022-11-23T23:43:49.339Z,97893.00
2022-11-23T23:46:17.508Z,97902.00
2022-11-23T23:48:45.632Z,97909.00
2022-11-23T23:51:21.338Z,97914.00
2022-11-23T23:53:53.419Z,97918.00
2022-11-23T23:56:26.918Z,97916.00
2022-11-23T23:58:59.133Z,97921.00
